createdAt,value
2022-11-18T00:00:11.344Z,6.40
2022-11-18T00:02:40.232Z,6.40
2022-11-18T00:05:09.075Z,6.40
2022-11-18T00:07:40.487Z,6.40
2022-11-18T00:10:09.608Z,6.40
2022-11-18T00:12:56.217Z,6.40
2022-11-18T00:15:31.594Z,6.40
2022-11-18T00:18:00.752Z,6.40
2022-11-18T00:20:29.512Z,6.40
2022-11-18T00:22:58.401Z,6.30
2022-11-18T00:25:28.086Z,6.40
2022-11-18T00:27:57.875Z,6.40
2022-11-18T00:30:28.302Z,6.40
2022-11-18T00:32:58.092Z,6.50
2022-11-18T00:35:29.980Z,6.60
2022-11-18T00:37:58.836Z,6.60
2022-11-18T00:40:29.992Z,6.60
2022-11-18T00:42:57.853Z,6.70
2022-11-18T00:45:28.296Z,6.60
2022-11-18T00:48:00.308Z,6.70
2022-11-18T00:50:29.055Z,6.70
2022-11-18T00:52:58.257Z,6.60
2022-11-18T00:55:29.234Z,6.60
2022-11-18T00:57:58.274Z,6.50
2022-11-18T01:00:28.795Z,6.50
2022-11-18T01:02:58.167Z,6.50
2022-11-18T01:05:27.612Z,6.50
2022-11-18T01:07:56.656Z,6.50
2022-11-18T01:10:26.426Z,6.50
2022-11-18T01:13:12.513Z,6.40
2022-11-18T01:15:47.127Z,6.40
2022-11-18T01:18:15.897Z,6.40
2022-11-18T01:20:45.185Z,6.30
2022-11-18T01:23:14.613Z,6.30
2022-11-18T01:25:46.639Z,6.30
2022-11-18T01:28:20.327Z,6.30
2022-11-18T01:30:53.587Z,6.20
2022-11-18T01:33:22.633Z,6.30
2022-11-18T01:35:51.356Z,6.30
2022-11-18T01:38:20.271Z,6.30
2022-11-18T01:40:49.002Z,6.20
2022-11-18T01:43:20.266Z,6.20
2022-11-18T01:45:50.097Z,6.20
2022-11-18T01:48:25.358Z,6.20
2022-11-18T01:50:57.849Z,6.20
2022-11-18T01:53:30.659Z,6.20
2022-11-18T01:56:03.366Z,6.20
2022-11-18T01:58:37.071Z,6.20
2022-11-18T02:01:07.769Z,6.20
2022-11-18T02:03:38.878Z,6.20
2022-11-18T02:06:11.512Z,6.20
2022-11-18T02:08:40.651Z,6.20
2022-11-18T02:11:33.329Z,6.30
2022-11-18T02:14:04.465Z,6.30
2022-11-18T02:16:46.668Z,6.40
2022-11-18T02:19:39.673Z,6.40
2022-11-18T02:22:21.221Z,6.40
2022-11-18T02:24:57.711Z,6.50
2022-11-18T02:27:57.678Z,6.60
2022-11-18T02:30:30.734Z,6.60
2022-11-18T02:33:05.560Z,6.60
2022-11-18T02:35:40.889Z,6.60
2022-11-18T02:38:12.979Z,6.70
2022-11-18T02:40:45.890Z,6.80
2022-11-18T02:43:23.173Z,6.80
2022-11-18T02:45:57.942Z,6.90
2022-11-18T02:48:32.475Z,6.90
2022-11-18T02:51:03.279Z,7.00
2022-11-18T02:53:34.502Z,7.00
2022-11-18T02:56:04.739Z,7.00
2022-11-18T02:58:33.715Z,7.00
2022-11-18T03:01:04.067Z,7.00
2022-11-18T03:03:34.531Z,7.10
2022-11-18T03:06:15.162Z,7.00
2022-11-18T03:08:52.004Z,7.00
2022-11-18T03:11:24.512Z,7.00
2022-11-18T03:14:09.327Z,7.00
2022-11-18T03:16:45.813Z,7.00
2022-11-18T03:19:23.510Z,7.10
2022-11-18T03:22:03.721Z,7.10
2022-11-18T03:24:35.165Z,7.20
2022-11-18T03:27:12.200Z,7.20
2022-11-18T03:29:46.356Z,7.20
2022-11-18T03:32:21.035Z,7.20
2022-11-18T03:34:53.098Z,7.20
2022-11-18T03:37:24.365Z,7.30
2022-11-18T03:39:56.565Z,7.30
2022-11-18T03:42:30.515Z,7.30
2022-11-18T03:45:05.509Z,7.20
2022-11-18T03:47:40.864Z,7.30
2022-11-18T03:50:14.803Z,7.30
2022-11-18T03:52:44.872Z,7.30
2022-11-18T03:55:16.717Z,7.40
2022-11-18T03:57:51.785Z,7.30
2022-11-18T04:00:20.901Z,7.30
2022-11-18T04:02:53.629Z,7.30
2022-11-18T04:05:22.632Z,7.40
2022-11-18T04:07:57.697Z,7.40
2022-11-18T04:10:30.730Z,7.40
2022-11-18T04:13:06.444Z,7.40
2022-11-18T04:15:38.852Z,7.40
2022-11-18T04:18:09.918Z,7.40
2022-11-18T04:20:39.212Z,7.50
2022-11-18T04:23:08.768Z,7.40
2022-11-18T04:25:38.176Z,7.40
2022-11-18T04:28:07.564Z,7.50
2022-11-18T04:30:38.082Z,7.50
2022-11-18T04:33:08.310Z,7.50
2022-11-18T04:35:37.028Z,7.50
2022-11-18T04:38:05.763Z,7.50
2022-11-18T04:40:34.486Z,7.50
2022-11-18T04:43:03.185Z,7.50
2022-11-18T04:45:31.952Z,7.60
2022-11-18T04:48:03.739Z,7.60
2022-11-18T04:50:34.129Z,7.60
2022-11-18T04:53:05.590Z,7.60
2022-11-18T04:55:37.140Z,7.60
2022-11-18T04:58:05.919Z,7.50
2022-11-18T05:00:34.702Z,7.50
2022-11-18T05:03:03.511Z,7.50
2022-11-18T05:05:35.631Z,7.50
2022-11-18T05:08:04.296Z,7.50
2022-11-18T05:10:33.075Z,7.50
2022-11-18T05:13:00.767Z,7.50
2022-11-18T05:15:29.544Z,7.50
2022-11-18T05:17:58.533Z,7.50
2022-11-18T05:20:31.077Z,7.50
2022-11-18T05:23:01.325Z,7.50
2022-11-18T05:25:30.061Z,7.50
2022-11-18T05:27:58.793Z,7.50
2022-11-18T05:30:33.267Z,7.50
2022-11-18T05:33:01.921Z,7.50
2022-11-18T05:35:30.718Z,7.60
2022-11-18T05:38:02.881Z,7.60
2022-11-18T05:40:34.593Z,7.60
2022-11-18T05:43:11.182Z,7.70
2022-11-18T05:45:40.398Z,7.60
2022-11-18T05:48:09.198Z,7.70
2022-11-18T05:50:39.468Z,7.70
2022-11-18T05:53:09.538Z,7.70
2022-11-18T05:55:43.330Z,7.80
2022-11-18T05:58:12.077Z,7.80
2022-11-18T06:00:41.036Z,7.80
2022-11-18T06:03:14.063Z,7.80
2022-11-18T06:05:43.046Z,7.80
2022-11-18T06:08:15.179Z,7.80
2022-11-18T06:10:48.289Z,7.80
2022-11-18T06:13:19.392Z,7.80
2022-11-18T06:15:48.469Z,7.80
2022-11-18T06:18:21.422Z,7.80
2022-11-18T06:20:51.180Z,7.80
2022-11-18T06:23:22.823Z,7.70
2022-11-18T06:25:51.915Z,7.70
2022-11-18T06:28:21.659Z,7.60
2022-11-18T06:30:50.459Z,7.60
2022-11-18T06:33:19.339Z,7.50
2022-11-18T06:35:48.117Z,7.40
2022-11-18T06:38:16.923Z,7.40
2022-11-18T06:40:49.916Z,7.30
2022-11-18T06:43:36.166Z,7.30
2022-11-18T06:46:26.493Z,7.20
2022-11-18T06:48:56.599Z,7.20
2022-11-18T06:51:28.071Z,7.20
2022-11-18T06:53:59.909Z,7.20
2022-11-18T06:56:33.184Z,7.20
2022-11-18T06:59:01.992Z,7.20
2022-11-18T07:01:35.305Z,7.30
2022-11-18T07:04:04.620Z,7.40
2022-11-18T07:06:35.322Z,7.40
2022-11-18T07:09:07.229Z,7.40
2022-11-18T07:11:38.399Z,7.50
2022-11-18T07:14:07.200Z,7.50
2022-11-18T07:16:38.986Z,7.60
2022-11-18T07:19:11.572Z,7.70
2022-11-18T07:21:41.319Z,7.80
2022-11-18T07:24:13.155Z,7.80
2022-11-18T07:26:44.054Z,7.80
2022-11-18T07:29:13.646Z,7.80
2022-11-18T07:31:45.375Z,7.80
2022-11-18T07:34:16.253Z,7.80
2022-11-18T07:36:44.967Z,7.90
2022-11-18T07:39:13.702Z,7.90
2022-11-18T07:41:43.977Z,7.90
2022-11-18T07:44:13.578Z,8.00
2022-11-18T07:46:42.965Z,8.10
2022-11-18T07:49:13.202Z,8.10
2022-11-18T07:51:42.221Z,8.20
2022-11-18T07:54:12.330Z,8.30
2022-11-18T07:56:41.676Z,8.30
2022-11-18T07:59:21.119Z,8.40
2022-11-18T08:02:12.440Z,8.30
2022-11-18T08:04:41.405Z,8.40
2022-11-18T08:07:11.325Z,8.40
2022-11-18T08:09:40.104Z,8.40
2022-11-18T08:12:09.173Z,8.40
2022-11-18T08:14:39.308Z,8.40
2022-11-18T08:17:08.102Z,8.40
2022-11-18T08:19:36.954Z,8.40
2022-11-18T08:22:05.862Z,8.30
2022-11-18T08:24:34.833Z,8.30
2022-11-18T08:27:03.533Z,8.30
2022-11-18T08:29:32.303Z,8.30
2022-11-18T08:32:04.976Z,8.30
2022-11-18T08:34:33.852Z,8.20
2022-11-18T08:37:02.704Z,8.20
2022-11-18T08:39:31.366Z,8.20
2022-11-18T08:42:00.257Z,8.20
2022-11-18T08:44:29.146Z,8.30
2022-11-18T08:46:58.038Z,8.40
2022-11-18T08:49:32.135Z,8.30
2022-11-18T08:52:01.283Z,8.40
2022-11-18T08:54:29.893Z,8.40
2022-11-18T08:56:58.730Z,8.50
2022-11-18T08:59:28.630Z,8.60
2022-11-18T09:01:57.930Z,8.60
2022-11-18T09:04:28.261Z,8.60
2022-11-18T09:06:59.882Z,8.70
2022-11-18T09:09:28.536Z,8.80
2022-11-18T09:11:59.929Z,8.70
2022-11-18T09:17:17.089Z,8.70
2022-11-18T09:19:48.242Z,8.80
2022-11-18T09:22:17.109Z,8.90
2022-11-18T09:24:45.663Z,8.90
2022-11-18T09:27:17.416Z,8.90
2022-11-18T09:29:46.541Z,9.00
2022-11-18T09:32:15.720Z,9.10
2022-11-18T09:34:44.360Z,9.20
2022-11-18T09:37:14.810Z,9.30
2022-11-18T09:39:43.515Z,9.40
2022-11-18T09:42:31.189Z,9.50
2022-11-18T09:45:14.018Z,9.60
2022-11-18T09:47:44.380Z,9.70
2022-11-18T09:50:47.280Z,9.80
2022-11-18T09:53:16.538Z,9.90
2022-11-18T09:55:45.787Z,10.00
2022-11-18T09:58:19.463Z,10.00
2022-11-18T10:00:48.409Z,9.90
2022-11-18T10:03:25.307Z,9.90
2022-11-18T10:06:03.867Z,9.90
2022-11-18T10:08:41.228Z,9.80
2022-11-18T10:11:17.958Z,9.80
2022-11-18T10:13:58.487Z,9.80
2022-11-18T10:16:42.034Z,9.90
2022-11-18T10:19:21.260Z,9.80
2022-11-18T10:22:01.833Z,9.90
2022-11-18T10:24:36.965Z,9.90
2022-11-18T10:27:11.711Z,10.00
2022-11-18T10:29:40.374Z,10.10
2022-11-18T10:32:12.269Z,10.20
2022-11-18T10:34:49.211Z,10.40
2022-11-18T10:37:45.856Z,10.60
2022-11-18T10:40:28.737Z,10.70
2022-11-18T10:43:00.613Z,10.80
2022-11-18T10:45:31.778Z,11.00
2022-11-18T10:48:09.932Z,11.00
2022-11-18T10:50:40.143Z,11.00
2022-11-18T10:53:30.782Z,10.90
2022-11-18T10:56:02.611Z,10.60
2022-11-18T10:58:33.364Z,10.60
2022-11-18T11:01:10.075Z,10.80
2022-11-18T11:03:42.308Z,10.90
2022-11-18T11:06:38.903Z,11.00
2022-11-18T11:09:10.016Z,10.90
2022-11-18T11:11:43.598Z,10.90
2022-11-18T11:14:22.421Z,11.00
2022-11-18T11:17:02.770Z,11.10
2022-11-18T11:19:45.593Z,11.10
2022-11-18T11:22:14.607Z,11.20
2022-11-18T11:24:43.340Z,11.40
2022-11-18T11:30:40.766Z,11.80
2022-11-18T11:33:31.187Z,11.80
2022-11-18T11:36:17.838Z,11.80
2022-11-18T11:39:04.618Z,11.70
2022-11-18T11:41:46.330Z,11.50
2022-11-18T11:44:32.778Z,11.40
2022-11-18T11:47:30.150Z,11.40
2022-11-18T11:50:06.787Z,11.50
2022-11-18T11:52:43.435Z,11.80
2022-11-18T11:55:19.793Z,12.10
2022-11-18T11:58:08.003Z,12.30
2022-11-18T12:00:47.769Z,12.20
2022-11-18T12:03:46.060Z,12.20
2022-11-18T12:06:19.156Z,12.10
2022-11-18T12:08:58.040Z,11.80
2022-11-18T12:11:32.692Z,11.80
2022-11-18T12:14:05.337Z,11.90
2022-11-18T12:16:43.593Z,11.70
2022-11-18T12:19:15.388Z,11.50
2022-11-18T12:22:05.416Z,11.40
2022-11-18T12:24:38.553Z,11.20
2022-11-18T12:27:13.726Z,11.10
2022-11-18T12:29:53.999Z,11.00
2022-11-18T12:32:36.594Z,11.00
2022-11-18T12:35:23.153Z,11.10
2022-11-18T12:38:03.111Z,11.30
2022-11-18T12:40:50.595Z,11.50
2022-11-18T12:44:05.578Z,11.70
2022-11-18T12:46:51.570Z,11.70
2022-11-18T12:49:57.564Z,11.80
2022-11-18T12:52:52.667Z,11.90
2022-11-18T12:55:34.052Z,11.60
2022-11-18T12:58:02.606Z,11.50
2022-11-18T13:00:53.232Z,11.60
2022-11-18T13:03:28.960Z,11.50
2022-11-18T13:06:04.008Z,11.50
2022-11-18T13:08:34.097Z,11.60
2022-11-18T13:11:28.493Z,11.50
2022-11-18T13:14:16.802Z,11.40
2022-11-18T13:17:03.513Z,11.30
2022-11-18T13:19:32.452Z,11.20
2022-11-18T13:22:20.796Z,11.10
2022-11-18T13:24:52.436Z,11.10
2022-11-18T13:27:32.850Z,11.00
2022-11-18T13:30:08.506Z,10.90
2022-11-18T13:32:37.362Z,10.80
2022-11-18T13:35:14.564Z,10.80
2022-11-18T13:37:54.331Z,10.80
2022-11-18T13:40:27.388Z,10.70
2022-11-18T13:42:56.358Z,10.60
2022-11-18T13:45:31.258Z,10.60
2022-11-18T13:48:07.237Z,10.60
2022-11-18T13:50:57.136Z,10.80
2022-11-18T13:53:31.448Z,10.80
2022-11-18T13:56:04.973Z,10.70
2022-11-18T13:59:02.725Z,10.60
2022-11-18T14:01:29.888Z,10.60
2022-11-18T14:04:05.525Z,10.50
2022-11-18T14:06:36.362Z,10.50
2022-11-18T14:09:19.054Z,10.40
2022-11-18T14:12:02.055Z,10.40
2022-11-18T14:14:33.674Z,10.30
2022-11-18T14:17:19.037Z,10.30
2022-11-18T14:19:50.758Z,10.30
2022-11-18T14:22:21.885Z,10.30
2022-11-18T14:24:58.794Z,10.30
2022-11-18T14:27:40.034Z,10.30
2022-11-18T14:30:32.900Z,10.30
2022-11-18T14:33:21.404Z,10.30
2022-11-18T14:35:53.270Z,10.20
2022-11-18T14:41:14.719Z,10.20
2022-11-18T14:43:46.153Z,10.10
2022-11-18T14:46:18.983Z,10.10
2022-11-18T14:48:48.067Z,10.10
2022-11-18T14:51:18.202Z,10.10
2022-11-18T14:53:47.017Z,10.10
2022-11-18T14:56:21.777Z,10.10
2022-11-18T14:58:52.020Z,10.00
2022-11-18T15:01:23.768Z,10.00
2022-11-18T15:03:55.321Z,10.10
2022-11-18T15:06:25.267Z,10.00
2022-11-18T15:08:55.366Z,10.00
2022-11-18T15:11:24.076Z,10.00
2022-11-18T15:13:54.113Z,10.00
2022-11-18T15:16:25.201Z,10.00
2022-11-18T15:19:00.439Z,10.00
2022-11-18T15:21:29.470Z,10.00
2022-11-18T15:23:58.159Z,9.90
2022-11-18T15:26:29.055Z,9.90
2022-11-18T15:28:59.412Z,9.90
2022-11-18T15:31:28.630Z,9.90
2022-11-18T15:34:06.263Z,9.80
2022-11-18T15:36:35.508Z,9.80
2022-11-18T15:39:04.897Z,9.70
2022-11-18T15:41:33.562Z,9.70
2022-11-18T15:44:05.167Z,9.70
2022-11-18T15:46:34.481Z,9.70
2022-11-18T15:49:03.472Z,9.70
2022-11-18T15:51:33.337Z,9.70
2022-11-18T15:54:01.954Z,9.80
2022-11-18T15:56:31.798Z,9.80
2022-11-18T15:59:02.274Z,9.70
2022-11-18T16:01:34.009Z,9.60
2022-11-18T16:04:03.180Z,9.40
2022-11-18T16:06:32.409Z,9.30
2022-11-18T16:09:01.340Z,9.10
2022-11-18T16:11:47.880Z,9.10
2022-11-18T16:14:18.534Z,9.10
2022-11-18T16:16:50.306Z,9.00
2022-11-18T16:19:20.355Z,8.90
2022-11-18T16:21:51.161Z,8.90
2022-11-18T16:24:21.915Z,8.90
2022-11-18T16:26:51.281Z,8.80
2022-11-18T16:29:20.805Z,8.80
2022-11-18T16:31:53.014Z,8.80
2022-11-18T16:34:23.164Z,8.70
2022-11-18T16:36:54.686Z,8.60
2022-11-18T16:39:26.375Z,8.50
2022-11-18T16:42:02.247Z,8.30
2022-11-18T16:44:36.042Z,8.30
2022-11-18T16:47:13.699Z,8.20
2022-11-18T16:49:44.092Z,8.20
2022-11-18T16:52:13.052Z,8.10
2022-11-18T16:54:45.833Z,8.10
2022-11-18T16:57:15.135Z,7.90
2022-11-18T16:59:43.694Z,7.90
2022-11-18T17:02:15.170Z,7.80
2022-11-18T17:04:44.356Z,7.80
2022-11-18T17:07:13.301Z,7.70
2022-11-18T17:09:42.021Z,7.60
2022-11-18T17:12:10.860Z,7.50
2022-11-18T17:14:40.276Z,7.40
2022-11-18T17:17:09.179Z,7.30
2022-11-18T17:19:39.180Z,7.20
2022-11-18T17:22:07.910Z,7.20
2022-11-18T17:24:36.594Z,7.10
2022-11-18T17:27:05.230Z,7.00
2022-11-18T17:29:34.810Z,7.00
2022-11-18T17:32:03.628Z,6.90
2022-11-18T17:34:32.402Z,6.90
2022-11-18T17:37:06.849Z,6.90
2022-11-18T17:39:36.224Z,6.90
2022-11-18T17:42:19.011Z,6.90
2022-11-18T17:44:47.704Z,6.80
2022-11-18T17:47:16.556Z,6.80
2022-11-18T17:49:45.701Z,6.80
2022-11-18T17:52:15.685Z,6.90
2022-11-18T17:54:44.451Z,6.80
2022-11-18T17:57:13.045Z,6.80
2022-11-18T17:59:41.722Z,6.70
2022-11-18T18:02:12.918Z,6.70
2022-11-18T18:04:41.582Z,6.60
2022-11-18T18:07:10.364Z,6.60
2022-11-18T18:09:40.563Z,6.50
2022-11-18T18:12:23.357Z,6.50
2022-11-18T18:14:52.525Z,6.40
2022-11-18T18:17:21.216Z,6.40
2022-11-18T18:19:49.866Z,6.30
2022-11-18T18:22:20.495Z,6.30
2022-11-18T18:24:50.645Z,6.20
2022-11-18T18:27:19.401Z,6.30
2022-11-18T18:29:48.131Z,6.30
2022-11-18T18:32:16.940Z,6.20
2022-11-18T18:34:45.734Z,6.20
2022-11-18T18:37:15.269Z,6.00
2022-11-18T18:39:44.121Z,6.00
2022-11-18T18:42:14.324Z,5.80
2022-11-18T18:45:00.236Z,5.80
2022-11-18T18:47:29.152Z,5.70
2022-11-18T18:49:58.562Z,5.60
2022-11-18T18:52:27.995Z,5.60
2022-11-18T18:54:57.190Z,5.60
2022-11-18T18:57:30.776Z,5.60
2022-11-18T18:59:59.762Z,5.60
2022-11-18T19:02:28.764Z,5.50
2022-11-18T19:05:00.132Z,5.50
2022-11-18T19:07:31.380Z,5.40
2022-11-18T19:10:00.390Z,5.40
2022-11-18T19:12:51.739Z,5.30
2022-11-18T19:15:23.179Z,5.20
2022-11-18T19:17:52.218Z,5.20
2022-11-18T19:20:36.717Z,5.20
2022-11-18T19:23:10.572Z,5.20
2022-11-18T19:25:39.829Z,5.10
2022-11-18T19:28:11.549Z,5.00
2022-11-18T19:30:40.493Z,5.20
2022-11-18T19:33:09.174Z,5.10
2022-11-18T19:35:38.960Z,5.00
2022-11-18T19:38:07.731Z,4.90
2022-11-18T19:40:36.398Z,4.80
2022-11-18T19:43:05.223Z,4.80
2022-11-18T19:45:35.452Z,4.80
2022-11-18T19:48:04.553Z,4.80
2022-11-18T19:50:33.292Z,4.80
2022-11-18T19:53:22.770Z,4.70
2022-11-18T19:55:56.396Z,4.70
2022-11-18T19:58:28.542Z,4.70
2022-11-18T20:00:59.186Z,4.60
2022-11-18T20:03:29.902Z,4.60
2022-11-18T20:06:02.297Z,4.60
2022-11-18T20:08:33.702Z,4.60
2022-11-18T20:11:09.042Z,4.60
2022-11-18T20:13:38.874Z,4.60
2022-11-18T20:16:11.735Z,4.60
2022-11-18T20:18:40.861Z,4.60
2022-11-18T20:21:12.112Z,4.60
2022-11-18T20:23:40.974Z,4.50
2022-11-18T20:26:11.604Z,4.50
2022-11-18T20:28:42.430Z,4.50
2022-11-18T20:31:15.649Z,4.50
2022-11-18T20:33:49.451Z,4.40
2022-11-18T20:36:20.115Z,4.40
2022-11-18T20:38:51.411Z,4.40
2022-11-18T20:41:21.035Z,4.30
2022-11-18T20:43:50.347Z,4.20
2022-11-18T20:46:22.753Z,4.20
2022-11-18T20:48:51.820Z,4.10
2022-11-18T20:51:23.514Z,4.20
2022-11-18T20:53:53.319Z,4.10
2022-11-18T20:56:24.147Z,4.10
2022-11-18T20:58:53.370Z,4.00
2022-11-18T21:01:26.412Z,4.00
2022-11-18T21:03:59.552Z,4.00
2022-11-18T21:06:30.922Z,4.00
2022-11-18T21:09:01.541Z,4.00
2022-11-18T21:11:31.115Z,3.90
2022-11-18T21:14:22.975Z,3.90
2022-11-18T21:16:55.819Z,3.90
2022-11-18T21:19:26.639Z,3.90
2022-11-18T21:21:56.565Z,3.90
2022-11-18T21:24:28.728Z,3.90
2022-11-18T21:26:59.019Z,3.90
2022-11-18T21:29:29.401Z,3.80
2022-11-18T21:32:01.671Z,3.80
2022-11-18T21:34:30.794Z,3.80
2022-11-18T21:36:59.663Z,3.80
2022-11-18T21:39:29.197Z,3.80
2022-11-18T21:41:58.996Z,3.80
2022-11-18T21:44:28.964Z,3.80
2022-11-18T21:46:59.344Z,3.70
2022-11-18T21:49:28.495Z,3.80
2022-11-18T21:51:57.977Z,3.80
2022-11-18T21:54:26.779Z,3.80
2022-11-18T21:56:55.529Z,3.70
2022-11-18T21:59:24.373Z,3.80
2022-11-18T22:01:53.089Z,3.70
2022-11-18T22:04:40.733Z,3.80
2022-11-18T22:07:09.511Z,3.80
2022-11-18T22:09:38.540Z,3.80
2022-11-18T22:12:08.185Z,3.80
2022-11-18T22:14:37.098Z,3.70
2022-11-18T22:17:06.687Z,3.70
2022-11-18T22:19:36.783Z,3.70
2022-11-18T22:22:05.602Z,3.70
2022-11-18T22:24:34.296Z,3.70
2022-11-18T22:27:07.015Z,3.70
2022-11-18T22:29:38.664Z,3.70
2022-11-18T22:32:07.362Z,3.70
2022-11-18T22:34:37.355Z,3.80
2022-11-18T22:37:06.061Z,3.70
2022-11-18T22:39:34.912Z,3.70
2022-11-18T22:42:21.154Z,3.70
2022-11-18T22:44:49.794Z,3.70
2022-11-18T22:47:18.541Z,3.70
2022-11-18T22:49:52.129Z,3.70
2022-11-18T22:52:23.833Z,3.70
2022-11-18T22:54:52.532Z,3.60
2022-11-18T22:57:21.142Z,3.60
2022-11-18T22:59:49.831Z,3.60
2022-11-18T23:02:21.024Z,3.60
2022-11-18T23:04:51.297Z,3.60
2022-11-18T23:07:20.095Z,3.70
2022-11-18T23:09:48.834Z,3.60
2022-11-18T23:12:34.874Z,3.60
2022-11-18T23:15:06.069Z,3.60
2022-11-18T23:17:34.889Z,3.60
2022-11-18T23:20:05.713Z,3.60
2022-11-18T23:22:34.392Z,3.60
2022-11-18T23:25:03.041Z,3.60
2022-11-18T23:27:31.644Z,3.60
2022-11-18T23:30:00.332Z,3.60
2022-11-18T23:32:29.256Z,3.60
2022-11-18T23:34:58.757Z,3.60
2022-11-18T23:37:29.112Z,3.60
2022-11-18T23:40:01.099Z,3.60
2022-11-18T23:42:29.927Z,3.60
2022-11-18T23:45:05.414Z,3.60
2022-11-18T23:47:34.410Z,3.60
2022-11-18T23:50:04.081Z,3.60
2022-11-18T23:52:36.493Z,3.60
2022-11-18T23:55:05.376Z,3.50
2022-11-18T23:57:37.100Z,3.50
